createdAt,value
2022-09-09T00:00:56.266Z,17.84
2022-09-09T00:03:25.179Z,17.86
2022-09-09T00:06:01.439Z,18.00
2022-09-09T00:08:40.330Z,18.02
2022-09-09T00:11:07.697Z,17.93
2022-09-09T00:13:37.624Z,17.78
2022-09-09T00:16:06.273Z,17.86
2022-09-09T00:18:39.002Z,17.66
2022-09-09T00:21:09.429Z,17.76
2022-09-09T00:23:38.789Z,17.63
2022-09-09T00:26:10.732Z,17.72
2022-09-09T00:28:41.796Z,17.80
2022-09-09T00:31:15.035Z,17.65
2022-09-09T00:33:41.381Z,17.61
2022-09-09T00:36:11.770Z,17.53
2022-09-09T00:38:40.317Z,17.55
2022-09-09T00:41:12.911Z,17.58
2022-09-09T00:43:39.151Z,17.25
2022-09-09T00:46:29.545Z,17.37
2022-09-09T00:49:02.149Z,17.36
2022-09-09T00:51:36.683Z,17.25
2022-09-09T00:54:19.442Z,17.27
2022-09-09T00:56:53.932Z,17.06
2022-09-09T00:59:30.385Z,17.23
2022-09-09T01:01:56.799Z,17.24
2022-09-09T01:04:32.213Z,17.03
2022-09-09T01:07:06.147Z,17.17
2022-09-09T01:09:40.686Z,17.09
2022-09-09T01:12:12.406Z,17.26
2022-09-09T01:14:45.327Z,17.08
2022-09-09T01:17:18.354Z,16.86
2022-09-09T01:20:01.627Z,16.86
2022-09-09T01:22:37.482Z,17.05
2022-09-09T01:25:24.782Z,17.11
2022-09-09T01:27:59.228Z,16.85
2022-09-09T01:30:24.178Z,16.91
2022-09-09T01:32:51.895Z,16.74
2022-09-09T01:35:32.776Z,16.86
2022-09-09T01:37:59.077Z,16.86
2022-09-09T01:40:23.592Z,17.15
2022-09-09T01:42:47.886Z,17.01
2022-09-09T01:45:13.518Z,17.11
2022-09-09T01:47:38.355Z,17.11
2022-09-09T01:50:18.871Z,17.08
2022-09-09T01:52:44.370Z,17.02
2022-09-09T01:55:11.791Z,16.91
2022-09-09T01:57:46.839Z,16.88
2022-09-09T02:00:14.891Z,16.73
2022-09-09T02:02:44.369Z,16.94
2022-09-09T02:05:24.624Z,17.02
2022-09-09T02:07:50.695Z,16.94
2022-09-09T02:10:45.688Z,17.09
2022-09-09T02:13:20.156Z,17.09
2022-09-09T02:15:51.994Z,17.14
2022-09-09T02:18:20.667Z,16.93
2022-09-09T02:20:47.104Z,16.95
2022-09-09T02:23:13.467Z,16.98
2022-09-09T02:25:39.350Z,17.02
2022-09-09T02:28:15.816Z,16.94
2022-09-09T02:30:42.117Z,16.83
2022-09-09T02:33:11.923Z,17.04
2022-09-09T02:35:44.332Z,17.18
2022-09-09T02:38:12.914Z,17.11
2022-09-09T02:40:39.718Z,16.91
2022-09-09T02:43:04.174Z,16.95
2022-09-09T02:45:38.475Z,16.72
2022-09-09T02:48:11.871Z,17.04
2022-09-09T02:50:47.905Z,17.13
2022-09-09T02:53:18.940Z,16.95
2022-09-09T02:55:49.800Z,17.06
2022-09-09T02:58:19.976Z,17.06
2022-09-09T03:00:59.545Z,17.18
2022-09-09T03:03:26.353Z,17.11
2022-09-09T03:05:50.443Z,16.94
2022-09-09T03:08:15.132Z,17.00
2022-09-09T03:10:40.353Z,17.01
2022-09-09T03:13:06.456Z,17.13
2022-09-09T03:15:35.179Z,17.16
2022-09-09T03:17:59.246Z,16.94
2022-09-09T03:20:24.685Z,17.02
2022-09-09T03:22:49.426Z,16.89
2022-09-09T03:25:13.311Z,17.04
2022-09-09T03:27:37.494Z,16.97
2022-09-09T03:30:04.862Z,16.87
2022-09-09T03:32:29.615Z,16.89
2022-09-09T03:34:55.316Z,16.85
2022-09-09T03:37:20.992Z,16.78
2022-09-09T03:39:47.061Z,16.84
2022-09-09T03:42:19.812Z,16.96
2022-09-09T03:44:51.190Z,16.85
2022-09-09T03:47:18.479Z,17.04
2022-09-09T03:49:42.817Z,16.95
2022-09-09T03:52:06.987Z,16.99
2022-09-09T03:54:32.347Z,17.08
2022-09-09T03:56:56.303Z,17.08
2022-09-09T03:59:22.421Z,16.89
2022-09-09T04:01:48.227Z,16.73
2022-09-09T04:04:13.195Z,16.90
2022-09-09T04:06:37.615Z,16.91
2022-09-09T04:09:04.380Z,17.08
2022-09-09T04:11:31.084Z,16.99
2022-09-09T04:13:57.125Z,17.18
2022-09-09T04:16:21.417Z,17.23
2022-09-09T04:18:45.898Z,17.23
2022-09-09T04:21:13.202Z,17.28
2022-09-09T04:23:38.004Z,17.27
2022-09-09T04:26:05.020Z,17.08
2022-09-09T04:28:34.477Z,17.54
2022-09-09T04:30:59.032Z,17.51
2022-09-09T04:33:23.632Z,17.67
2022-09-09T04:35:50.089Z,17.87
2022-09-09T04:38:16.413Z,18.03
2022-09-09T04:40:43.383Z,18.12
2022-09-09T04:43:08.921Z,18.16
2022-09-09T04:45:37.805Z,18.28
2022-09-09T04:48:01.633Z,18.50
2022-09-09T04:50:26.047Z,18.58
2022-09-09T04:52:55.872Z,18.67
2022-09-09T04:55:19.777Z,19.00
2022-09-09T04:57:44.078Z,19.16
2022-09-09T05:00:11.359Z,19.28
2022-09-09T05:02:41.242Z,19.48
2022-09-09T05:05:06.535Z,19.64
2022-09-09T05:07:32.391Z,19.79
2022-09-09T05:09:56.707Z,19.87
2022-09-09T05:12:20.834Z,19.89
2022-09-09T05:14:48.821Z,20.27
2022-09-09T05:17:14.339Z,20.16
2022-09-09T05:19:39.824Z,20.10
2022-09-09T05:22:03.756Z,20.25
2022-09-09T05:24:37.835Z,20.35
2022-09-09T05:27:03.374Z,20.65
2022-09-09T05:29:28.452Z,20.63
2022-09-09T05:31:53.948Z,20.97
2022-09-09T05:34:19.251Z,21.07
2022-09-09T05:36:44.880Z,21.10
2022-09-09T05:39:09.452Z,21.36
2022-09-09T05:41:34.038Z,21.33
2022-09-09T05:44:02.187Z,21.07
2022-09-09T05:46:27.152Z,21.23
2022-09-09T05:48:54.590Z,21.57
2022-09-09T05:51:26.070Z,21.65
2022-09-09T05:53:53.544Z,21.79
2022-09-09T05:56:19.698Z,21.72
2022-09-09T05:58:45.310Z,21.89
2022-09-09T06:01:11.766Z,21.50
2022-09-09T06:03:36.868Z,21.82
2022-09-09T06:06:02.091Z,21.76
2022-09-09T06:08:26.350Z,21.72
2022-09-09T06:10:52.317Z,22.15
2022-09-09T06:13:16.459Z,22.15
2022-09-09T06:15:41.591Z,21.96
2022-09-09T06:18:05.983Z,22.23
2022-09-09T06:20:31.924Z,22.30
2022-09-09T06:22:56.312Z,22.41
2022-09-09T06:25:21.326Z,22.35
2022-09-09T06:27:51.402Z,22.26
2022-09-09T06:30:15.505Z,22.46
2022-09-09T06:32:40.391Z,22.54
2022-09-09T06:35:05.476Z,22.71
2022-09-09T06:37:29.782Z,22.67
2022-09-09T06:39:56.043Z,22.78
2022-09-09T06:42:20.396Z,22.58
2022-09-09T06:44:49.218Z,22.72
2022-09-09T06:47:22.505Z,23.08
2022-09-09T06:49:48.441Z,23.03
2022-09-09T06:52:14.120Z,23.04
2022-09-09T06:54:38.771Z,22.88
2022-09-09T06:57:20.752Z,23.26
2022-09-09T06:59:50.754Z,23.09
2022-09-09T07:02:15.869Z,23.15
2022-09-09T07:04:40.149Z,23.18
2022-09-09T07:07:06.609Z,23.47
2022-09-09T07:09:32.554Z,23.54
2022-09-09T07:11:59.958Z,23.49
2022-09-09T07:14:28.250Z,23.37
2022-09-09T07:16:59.841Z,23.60
2022-09-09T07:19:27.422Z,23.64
2022-09-09T07:21:53.261Z,23.88
2022-09-09T07:24:20.237Z,23.97
2022-09-09T07:26:45.090Z,24.05
2022-09-09T07:29:10.543Z,24.19
2022-09-09T07:31:37.638Z,24.20
2022-09-09T07:34:08.084Z,24.34
2022-09-09T07:36:34.851Z,24.69
2022-09-09T07:39:02.918Z,24.64
2022-09-09T07:41:31.468Z,24.64
2022-09-09T07:43:57.592Z,24.88
2022-09-09T07:46:24.661Z,24.15
2022-09-09T07:48:52.441Z,24.27
2022-09-09T07:51:23.417Z,24.44
2022-09-09T07:53:49.192Z,24.69
2022-09-09T07:56:15.658Z,24.76
2022-09-09T07:58:41.772Z,25.11
2022-09-09T08:01:11.547Z,24.64
2022-09-09T08:03:36.009Z,24.78
2022-09-09T08:06:03.795Z,24.74
2022-09-09T08:08:30.203Z,24.89
2022-09-09T08:10:54.669Z,24.64
2022-09-09T08:13:19.488Z,25.01
2022-09-09T08:15:45.701Z,25.19
2022-09-09T08:18:10.955Z,25.25
2022-09-09T08:20:37.849Z,25.06
2022-09-09T08:23:02.109Z,25.37
2022-09-09T08:25:28.870Z,25.19
2022-09-09T08:27:55.529Z,25.43
2022-09-09T08:30:19.809Z,25.41
2022-09-09T08:32:45.996Z,25.18
2022-09-09T08:35:11.563Z,25.62
2022-09-09T08:37:35.970Z,25.83
2022-09-09T08:40:00.006Z,25.84
2022-09-09T08:42:40.295Z,25.77
2022-09-09T08:45:29.785Z,25.66
2022-09-09T08:48:08.852Z,25.65
2022-09-09T08:50:36.528Z,25.87
2022-09-09T08:53:18.530Z,25.83
2022-09-09T08:55:47.421Z,25.53
2022-09-09T08:58:18.053Z,25.92
2022-09-09T09:01:01.362Z,25.80
2022-09-09T09:03:37.319Z,25.91
2022-09-09T09:06:11.729Z,26.25
2022-09-09T09:08:46.317Z,26.09
2022-09-09T09:11:10.395Z,26.25
2022-09-09T09:13:44.439Z,26.02
2022-09-09T09:16:23.212Z,25.51
2022-09-09T09:18:48.343Z,25.63
2022-09-09T09:21:19.822Z,26.06
2022-09-09T09:23:53.794Z,26.43
2022-09-09T09:26:18.025Z,26.45
2022-09-09T09:28:43.621Z,26.46
2022-09-09T09:31:14.950Z,26.70
2022-09-09T09:33:50.543Z,25.92
2022-09-09T09:36:17.455Z,26.35
2022-09-09T09:41:43.863Z,26.43
2022-09-09T09:44:27.443Z,26.70
2022-09-09T09:46:52.229Z,26.08
2022-09-09T09:49:17.015Z,26.40
2022-09-09T09:51:42.118Z,26.69
2022-09-09T09:54:16.048Z,26.35
2022-09-09T09:56:44.920Z,26.23
2022-09-09T09:59:38.635Z,25.99
2022-09-09T10:02:19.641Z,26.58
2022-09-09T10:04:48.756Z,26.21
2022-09-09T10:07:14.904Z,26.69
2022-09-09T10:09:39.104Z,26.80
2022-09-09T10:12:12.177Z,26.55
2022-09-09T10:14:47.383Z,26.18
2022-09-09T10:17:22.156Z,26.22
2022-09-09T10:20:00.629Z,26.64
2022-09-09T10:22:28.984Z,25.91
2022-09-09T10:25:17.523Z,26.57
2022-09-09T10:27:57.801Z,26.84
2022-09-09T10:30:31.426Z,26.30
2022-09-09T10:33:06.735Z,26.75
2022-09-09T10:35:35.355Z,26.82
2022-09-09T10:38:18.799Z,26.16
2022-09-09T10:41:15.235Z,25.86
2022-09-09T10:44:09.261Z,26.88
2022-09-09T10:46:47.364Z,27.19
2022-09-09T10:49:23.210Z,27.23
2022-09-09T10:51:57.100Z,26.81
2022-09-09T10:54:40.492Z,27.02
2022-09-09T10:57:14.263Z,27.08
2022-09-09T10:59:45.046Z,26.64
2022-09-09T11:02:20.445Z,26.86
2022-09-09T11:04:50.900Z,27.03
2022-09-09T11:07:26.663Z,26.26
2022-09-09T11:09:58.217Z,27.00
2022-09-09T11:12:22.370Z,27.46
2022-09-09T11:14:51.949Z,27.54
2022-09-09T11:17:21.028Z,27.08
2022-09-09T11:19:46.286Z,26.91
2022-09-09T11:22:20.868Z,27.26
2022-09-09T11:24:49.884Z,26.89
2022-09-09T11:27:21.220Z,26.73
2022-09-09T11:30:44.607Z,27.51
2022-09-09T11:33:37.030Z,26.51
2022-09-09T11:36:19.711Z,26.73
2022-09-09T11:38:47.919Z,26.83
2022-09-09T11:41:12.161Z,27.19
2022-09-09T11:43:42.361Z,27.48
2022-09-09T11:46:08.450Z,26.66
2022-09-09T11:48:37.779Z,27.32
2022-09-09T11:51:06.145Z,27.34
2022-09-09T11:53:30.148Z,27.18
2022-09-09T11:56:06.984Z,27.55
2022-09-09T11:58:36.563Z,26.50
2022-09-09T12:01:00.753Z,26.53
2022-09-09T12:03:41.229Z,26.33
2022-09-09T12:06:18.401Z,26.81
2022-09-09T12:08:46.509Z,27.28
2022-09-09T12:11:10.791Z,27.15
2022-09-09T12:13:35.049Z,26.75
2022-09-09T12:16:00.491Z,26.66
2022-09-09T12:18:27.463Z,26.42
2022-09-09T12:21:03.770Z,26.33
2022-09-09T12:23:41.135Z,27.10
2022-09-09T12:26:24.331Z,27.02
2022-09-09T12:28:58.269Z,26.45
2022-09-09T12:31:27.711Z,26.30
2022-09-09T12:33:53.875Z,25.86
2022-09-09T12:36:24.141Z,26.36
2022-09-09T12:38:48.815Z,26.59
2022-09-09T12:41:22.736Z,26.35
2022-09-09T12:43:46.770Z,26.56
2022-09-09T12:46:22.953Z,26.88
2022-09-09T12:48:47.539Z,27.09
2022-09-09T12:51:23.596Z,27.34
2022-09-09T12:53:48.401Z,27.18
2022-09-09T12:56:21.757Z,27.05
2022-09-09T12:58:49.119Z,27.05
2022-09-09T13:01:23.351Z,27.29
2022-09-09T13:03:48.362Z,27.03
2022-09-09T13:06:22.187Z,27.17
2022-09-09T13:08:49.088Z,27.57
2022-09-09T13:11:19.337Z,26.96
2022-09-09T13:13:45.361Z,26.66
2022-09-09T13:16:23.160Z,26.79
2022-09-09T13:18:47.562Z,26.90
2022-09-09T13:21:11.644Z,27.32
2022-09-09T13:23:37.523Z,26.22
2022-09-09T13:26:05.333Z,26.89
2022-09-09T13:28:34.351Z,26.70
2022-09-09T13:31:03.231Z,26.27
2022-09-09T13:33:33.251Z,26.72
2022-09-09T13:35:59.979Z,27.41
2022-09-09T13:38:27.793Z,26.59
2022-09-09T13:40:58.675Z,25.91
2022-09-09T13:43:25.478Z,26.63
2022-09-09T13:45:56.325Z,26.50
2022-09-09T13:48:21.288Z,26.76
2022-09-09T13:50:56.473Z,26.25
2022-09-09T13:53:20.340Z,26.33
2022-09-09T13:55:44.187Z,27.00
2022-09-09T13:58:08.137Z,26.93
2022-09-09T14:00:35.345Z,26.46
2022-09-09T14:03:03.197Z,26.09
2022-09-09T14:05:28.627Z,26.32
2022-09-09T14:07:53.317Z,25.70
2022-09-09T14:10:18.225Z,25.73
2022-09-09T14:12:42.191Z,26.45
2022-09-09T14:15:06.886Z,26.53
2022-09-09T14:17:32.367Z,26.56
2022-09-09T14:19:57.150Z,26.92
2022-09-09T14:22:21.306Z,26.40
2022-09-09T14:24:48.576Z,26.68
2022-09-09T14:27:12.539Z,26.55
2022-09-09T14:29:36.380Z,26.37
2022-09-09T14:32:02.069Z,26.31
2022-09-09T14:34:27.475Z,26.40
2022-09-09T14:36:52.486Z,26.67
2022-09-09T14:39:16.488Z,26.18
2022-09-09T14:41:40.681Z,26.19
2022-09-09T14:44:04.941Z,26.50
2022-09-09T14:46:28.892Z,26.22
2022-09-09T14:51:24.991Z,26.37
2022-09-09T14:53:49.146Z,25.30
2022-09-09T14:56:15.926Z,25.70
2022-09-09T14:58:40.125Z,25.73
2022-09-09T15:01:06.084Z,26.05
2022-09-09T15:03:30.374Z,25.80
2022-09-09T15:05:54.239Z,25.82
2022-09-09T15:08:19.543Z,26.16
2022-09-09T15:10:45.966Z,25.82
2022-09-09T15:13:09.912Z,25.16
2022-09-09T15:15:35.884Z,25.61
2022-09-09T15:17:59.936Z,25.90
2022-09-09T15:20:23.792Z,25.52
2022-09-09T15:22:47.866Z,25.45
2022-09-09T15:25:13.627Z,25.34
2022-09-09T15:27:37.637Z,25.43
2022-09-09T15:30:02.026Z,25.73
2022-09-09T15:32:27.250Z,24.84
2022-09-09T15:34:52.431Z,24.84
2022-09-09T15:37:16.356Z,24.69
2022-09-09T15:39:40.681Z,23.64
2022-09-09T15:42:08.165Z,24.07
2022-09-09T15:44:32.170Z,24.41
2022-09-09T15:46:56.255Z,23.95
2022-09-09T15:49:23.070Z,24.34
2022-09-09T15:51:49.113Z,24.34
2022-09-09T15:54:14.904Z,24.47
2022-09-09T15:56:38.862Z,24.41
2022-09-09T15:59:05.238Z,24.66
2022-09-09T16:01:29.580Z,24.65
2022-09-09T16:03:53.461Z,23.88
2022-09-09T16:06:17.780Z,24.14
2022-09-09T16:08:43.980Z,24.14
2022-09-09T16:11:12.198Z,24.27
2022-09-09T16:13:36.997Z,24.09
2022-09-09T16:16:03.104Z,24.29
2022-09-09T16:18:27.438Z,24.00
2022-09-09T16:20:56.320Z,24.29
2022-09-09T16:23:21.332Z,24.05
2022-09-09T16:25:45.491Z,24.20
2022-09-09T16:28:09.580Z,23.81
2022-09-09T16:30:34.287Z,23.87
2022-09-09T16:32:59.556Z,23.95
2022-09-09T16:35:24.534Z,23.79
2022-09-09T16:37:48.621Z,23.92
2022-09-09T16:40:12.854Z,23.98
2022-09-09T16:42:39.602Z,23.96
2022-09-09T16:45:07.904Z,23.96
2022-09-09T16:47:32.320Z,23.77
2022-09-09T16:49:59.044Z,23.94
2022-09-09T16:52:23.132Z,24.10
2022-09-09T16:54:47.197Z,23.90
2022-09-09T16:57:11.325Z,24.00
2022-09-09T16:59:35.250Z,23.95
2022-09-09T17:01:59.345Z,23.98
2022-09-09T17:04:25.796Z,23.96
2022-09-09T17:06:52.677Z,23.92
2022-09-09T17:09:16.611Z,23.71
2022-09-09T17:11:41.280Z,23.63
2022-09-09T17:14:06.379Z,23.58
2022-09-09T17:16:32.414Z,23.74
2022-09-09T17:18:57.846Z,23.65
2022-09-09T17:21:24.527Z,24.10
2022-09-09T17:23:50.695Z,23.75
2022-09-09T17:26:16.548Z,23.77
2022-09-09T17:28:42.055Z,23.72
2022-09-09T17:31:08.363Z,24.00
2022-09-09T17:33:33.089Z,23.89
2022-09-09T17:35:57.245Z,23.91
2022-09-09T17:38:24.406Z,24.09
2022-09-09T17:40:51.939Z,24.22
2022-09-09T17:43:16.062Z,23.63
2022-09-09T17:45:40.957Z,24.18
2022-09-09T17:48:08.346Z,24.19
2022-09-09T17:50:34.614Z,24.13
2022-09-09T17:52:58.911Z,24.05
2022-09-09T17:55:23.085Z,23.75
2022-09-09T17:57:48.763Z,23.68
2022-09-09T18:00:13.942Z,24.15
2022-09-09T18:02:39.132Z,24.24
2022-09-09T18:05:03.340Z,24.22
2022-09-09T18:07:27.261Z,23.76
2022-09-09T18:09:51.391Z,23.91
2022-09-09T18:12:15.349Z,23.96
2022-09-09T18:14:41.903Z,23.87
2022-09-09T18:17:07.243Z,24.08
2022-09-09T18:31:18.233Z,24.23
2022-09-09T18:33:44.240Z,24.31
2022-09-09T18:36:10.427Z,24.05
2022-09-09T18:38:35.683Z,24.40
2022-09-09T18:41:00.138Z,24.00
2022-09-09T18:43:24.151Z,23.95
2022-09-09T18:45:48.005Z,24.01
2022-09-09T18:48:13.437Z,23.98
2022-09-09T18:50:37.332Z,23.85
2022-09-09T18:53:01.226Z,23.84
2022-09-09T18:55:25.274Z,23.67
2022-09-09T18:57:50.075Z,23.87
2022-09-09T19:00:14.797Z,24.22
2022-09-09T19:02:38.991Z,24.18
2022-09-09T19:05:04.567Z,24.29
2022-09-09T19:07:28.507Z,24.34
2022-09-09T19:09:52.625Z,23.99
2022-09-09T19:12:16.947Z,24.23
2022-09-09T19:14:40.882Z,24.20
2022-09-09T19:17:05.312Z,24.33
2022-09-09T19:19:31.257Z,24.31
2022-09-09T19:21:57.681Z,24.25
2022-09-09T19:24:23.268Z,24.20
2022-09-09T19:26:48.679Z,24.00
2022-09-09T19:29:15.764Z,24.09
2022-09-09T19:31:41.568Z,24.15
2022-09-09T19:34:12.922Z,24.00
2022-09-09T19:36:37.363Z,24.20
2022-09-09T19:39:03.353Z,24.22
2022-09-09T19:41:29.117Z,24.04
2022-09-09T19:43:54.994Z,24.30
2022-09-09T19:46:19.507Z,23.94
2022-09-09T19:48:44.359Z,23.75
2022-09-09T19:51:11.600Z,23.88
2022-09-09T19:53:38.769Z,23.94
2022-09-09T19:56:04.552Z,24.07
2022-09-09T19:58:28.343Z,23.92
2022-09-09T20:00:53.531Z,23.81
2022-09-09T20:03:19.577Z,23.93
2022-09-09T20:05:43.832Z,24.05
2022-09-09T20:08:07.821Z,24.12
2022-09-09T20:10:32.057Z,24.24
2022-09-09T20:12:57.267Z,24.13
2022-09-09T20:15:21.336Z,23.97
2022-09-09T20:17:45.739Z,24.08
2022-09-09T20:20:10.023Z,24.02
2022-09-09T20:22:34.147Z,24.17
2022-09-09T20:24:58.165Z,24.06
2022-09-09T20:27:22.030Z,24.25
2022-09-09T20:29:47.548Z,23.94
2022-09-09T20:32:12.202Z,24.03
2022-09-09T20:34:36.021Z,24.07
2022-09-09T20:37:02.664Z,23.95
2022-09-09T20:39:27.870Z,23.88
2022-09-09T20:41:52.375Z,23.86
2022-09-09T20:44:17.927Z,23.86
2022-09-09T20:46:48.112Z,23.72
2022-09-09T20:49:13.017Z,23.77
2022-09-09T20:51:38.106Z,23.85
2022-09-09T20:54:04.936Z,23.92
2022-09-09T20:56:32.478Z,23.74
2022-09-09T20:58:56.906Z,23.91
2022-09-09T21:01:22.315Z,23.65
2022-09-09T21:03:47.710Z,23.90
2022-09-09T21:06:12.665Z,23.86
2022-09-09T21:08:36.837Z,23.72
2022-09-09T21:11:02.566Z,23.77
2022-09-09T21:13:28.154Z,24.13
2022-09-09T21:15:53.140Z,24.13
2022-09-09T21:18:17.437Z,24.10
2022-09-09T21:20:43.781Z,24.08
2022-09-09T21:23:08.659Z,23.94
2022-09-09T21:25:32.502Z,23.76
2022-09-09T21:27:56.511Z,23.95
2022-09-09T21:30:24.829Z,23.90
2022-09-09T21:32:52.568Z,24.04
2022-09-09T21:35:16.845Z,24.05
2022-09-09T21:37:42.641Z,23.90
2022-09-09T21:40:07.869Z,24.10
2022-09-09T21:42:31.924Z,23.86
2022-09-09T21:44:55.906Z,23.97
2022-09-09T21:47:19.847Z,23.78
2022-09-09T21:49:44.089Z,23.93
2022-09-09T21:52:07.964Z,24.12
2022-09-09T21:54:34.260Z,24.07
2022-09-09T21:56:58.485Z,23.80
2022-09-09T21:59:22.651Z,23.83
2022-09-09T22:01:47.424Z,23.90
2022-09-09T22:04:11.526Z,23.70
2022-09-09T22:06:35.488Z,23.80
2022-09-09T22:09:01.801Z,23.45
2022-09-09T22:11:28.160Z,23.60
2022-09-09T22:13:53.269Z,23.60
2022-09-09T22:16:21.126Z,23.73
2022-09-09T22:18:46.039Z,23.51
2022-09-09T22:21:11.929Z,23.51
2022-09-09T22:23:36.537Z,23.48
2022-09-09T22:26:00.603Z,23.53
2022-09-09T22:28:25.885Z,23.70
2022-09-09T22:30:50.082Z,23.56
2022-09-09T22:33:14.060Z,23.62
2022-09-09T22:35:42.429Z,23.47
2022-09-09T22:38:06.889Z,23.23
2022-09-09T22:40:30.984Z,23.45
2022-09-09T22:42:54.794Z,23.43
2022-09-09T22:45:20.956Z,23.53
2022-09-09T22:47:44.927Z,23.55
2022-09-09T22:50:09.933Z,23.63
2022-09-09T22:52:33.883Z,23.60
2022-09-09T22:54:59.147Z,23.31
2022-09-09T22:57:23.089Z,23.40
2022-09-09T22:59:47.037Z,23.51
2022-09-09T23:02:13.301Z,23.41
2022-09-09T23:04:39.266Z,23.18
2022-09-09T23:07:03.534Z,23.37
2022-09-09T23:09:27.735Z,23.41
2022-09-09T23:11:51.751Z,23.24
2022-09-09T23:14:15.621Z,23.26
2022-09-09T23:16:42.167Z,23.38
2022-09-09T23:19:10.927Z,23.40
2022-09-09T23:21:34.802Z,23.38
2022-09-09T23:24:01.473Z,23.26
2022-09-09T23:26:26.782Z,23.33
2022-09-09T23:28:51.883Z,23.17
2022-09-09T23:31:18.874Z,23.22
2022-09-09T23:33:43.916Z,23.19
2022-09-09T23:36:12.456Z,23.18
2022-09-09T23:38:39.602Z,23.17
2022-09-09T23:41:04.358Z,23.17
2022-09-09T23:43:28.995Z,23.15
2022-09-09T23:45:52.906Z,23.13
2022-09-09T23:48:16.775Z,23.20
2022-09-09T23:50:41.701Z,23.13
2022-09-09T23:53:08.478Z,23.03
2022-09-09T23:55:34.294Z,23.00
2022-09-09T23:57:58.359Z,23.10
